Time;durP1;ratioP1;P1;durP2;ratioP2;P2;SDS_P1;SDS_P2;PMS_P1;PMS_P2;Temp;Humidity;BMP_temperature;BMP_pressure;BME280_temperature;BME280_humidity;BME280_pressure;Samples;Min_cycle;Max_cycle;Signal;HPM_P1;HPM_P2
2022/11/06 00:01:07;;;;;;;18.27;8.15;;;;;;;;;;4990647;28;20462;-62
2022/11/06 00:03:33;;;;;;;20.85;8.15;;;;;;;;;;4990092;28;20419;-61
2022/11/06 00:08:42;;;;;;;23.55;9.07;;;;;;;;;;4990519;28;20483;-62
2022/11/06 00:11:09;;;;;;;21.10;10.65;;;;;;;;;;4990085;28;20428;-62
2022/11/06 00:13:35;;;;;;;19.65;9.88;;;;;;;;;;4989649;28;20047;-62
2022/11/06 00:16:02;;;;;;;20.50;9.40;;;;;;;;;;4990163;28;20466;-62
2022/11/06 00:18:28;;;;;;;20.92;10.23;;;;;;;;;;4989703;28;20499;-62
2022/11/06 00:20:53;;;;;;;18.95;8.55;;;;;;;;;;4989668;28;20309;-62
2022/11/06 00:23:18;;;;;;;15.70;8.73;;;;;;;;;;4990504;28;20455;-62
2022/11/06 00:25:44;;;;;;;17.75;9.10;;;;;;;;;;4989658;28;20407;-63
2022/11/06 00:28:09;;;;;;;25.52;10.05;;;;;;;;;;4990660;28;20024;-62
2022/11/06 00:30:34;;;;;;;27.85;9.13;;;;;;;;;;4990570;28;20416;-62
2022/11/06 00:33:00;;;;;;;20.17;9.18;;;;;;;;;;4989577;28;20476;-61
2022/11/06 00:35:25;;;;;;;23.30;9.98;;;;;;;;;;4989328;28;20413;-62
2022/11/06 00:37:50;;;;;;;19.38;9.38;;;;;;;;;;4989810;28;20321;-62
2022/11/06 00:40:16;;;;;;;18.90;9.40;;;;;;;;;;4989706;28;20382;-62
2022/11/06 00:42:41;;;;;;;20.17;9.20;;;;;;;;;;4989342;28;20456;-63
2022/11/06 00:45:07;;;;;;;16.25;7.97;;;;;;;;;;4989328;28;20317;-61
2022/11/06 00:47:32;;;;;;;18.35;9.20;;;;;;;;;;4988993;28;20463;-61
2022/11/06 00:49:58;;;;;;;21.42;8.88;;;;;;;;;;4989628;28;20395;-62
2022/11/06 00:52:23;;;;;;;19.02;8.90;;;;;;;;;;4990076;28;20554;-62
2022/11/06 00:54:48;;;;;;;17.50;8.65;;;;;;;;;;4989142;28;20348;-62
2022/11/06 00:57:14;;;;;;;18.08;8.90;;;;;;;;;;4989056;28;20041;-61
2022/11/06 00:59:39;;;;;;;19.10;8.02;;;;;;;;;;4990988;28;20376;-61
2022/11/06 01:02:04;;;;;;;12.02;7.03;;;;;;;;;;4980291;28;20388;-61
2022/11/06 01:04:30;;;;;;;13.65;7.95;;;;;;;;;;4969511;28;20025;-62
2022/11/06 01:06:55;;;;;;;20.20;8.68;;;;;;;;;;4968886;28;20353;-62
2022/11/06 01:09:23;;;;;;;17.95;8.18;;;;;;;;;;4969129;28;20060;-62
2022/11/06 01:11:51;;;;;;;19.15;8.68;;;;;;;;;;4970713;28;20099;-62
2022/11/06 01:14:18;;;;;;;18.42;7.68;;;;;;;;;;4964899;28;20457;-61
2022/11/06 01:16:43;;;;;;;23.92;8.23;;;;;;;;;;4965494;28;20517;-61
2022/11/06 01:19:13;;;;;;;24.02;9.13;;;;;;;;;;4969755;28;20372;-62
2022/11/06 01:21:41;;;;;;;15.73;9.70;;;;;;;;;;4968829;28;20456;-62
2022/11/06 01:24:15;;;;;;;21.38;9.85;;;;;;;;;;4969349;28;20340;-61
2022/11/06 01:26:41;;;;;;;19.20;8.15;;;;;;;;;;4969012;28;20033;-62
2022/11/06 01:29:09;;;;;;;16.90;7.88;;;;;;;;;;4969153;28;20048;-61
2022/11/06 01:31:35;;;;;;;19.10;9.25;;;;;;;;;;4969134;28;20098;-62
2022/11/06 01:34:01;;;;;;;20.25;9.23;;;;;;;;;;4968988;28;20432;-62
2022/11/06 01:36:27;;;;;;;17.27;8.75;;;;;;;;;;4969088;28;20568;-61
2022/11/06 01:38:53;;;;;;;20.40;9.55;;;;;;;;;;4969536;28;20494;-62
2022/11/06 01:41:27;;;;;;;26.27;10.73;;;;;;;;;;4969224;28;20415;-62
2022/11/06 01:44:01;;;;;;;21.92;9.50;;;;;;;;;;4970112;28;20029;-61
2022/11/06 01:46:29;;;;;;;18.02;8.77;;;;;;;;;;4968784;28;20445;-62
2022/11/06 01:49:06;;;;;;;19.85;9.55;;;;;;;;;;4968534;28;20428;-61
2022/11/06 01:51:42;;;;;;;18.45;9.35;;;;;;;;;;4968449;28;20330;-62
2022/11/06 01:54:07;;;;;;;16.77;8.52;;;;;;;;;;4950799;28;20436;-61
2022/11/06 01:56:34;;;;;;;24.45;9.07;;;;;;;;;;4968354;28;20452;-62
2022/11/06 01:59:00;;;;;;;16.48;8.20;;;;;;;;;;4949504;28;20073;-61
2022/11/06 02:01:25;;;;;;;21.23;9.32;;;;;;;;;;4952059;28;20021;-62
2022/11/06 02:03:57;;;;;;;21.13;8.65;;;;;;;;;;4988535;28;20406;-62
2022/11/06 02:06:23;;;;;;;17.05;8.80;;;;;;;;;;4987789;28;20436;-63
2022/11/06 02:08:48;;;;;;;17.30;8.38;;;;;;;;;;4988382;28;20524;-61
2022/11/06 02:11:13;;;;;;;16.42;8.38;;;;;;;;;;4988647;28;20305;-62
2022/11/06 02:14:02;;;;;;;20.90;9.63;;;;;;;;;;4988502;28;20435;-62
2022/11/06 02:16:42;;;;;;;16.50;8.85;;;;;;;;;;4970641;28;20033;-62
2022/11/06 02:19:16;;;;;;;24.60;10.13;;;;;;;;;;4988565;28;20107;-62
2022/11/06 02:22:00;;;;;;;17.80;9.98;;;;;;;;;;4989543;28;20499;-62
2022/11/06 02:24:32;;;;;;;19.35;8.52;;;;;;;;;;4991873;28;20037;-61
2022/11/06 02:27:11;;;;;;;17.60;8.85;;;;;;;;;;4973735;28;20025;-62
2022/11/06 02:29:59;;;;;;;26.48;10.95;;;;;;;;;;4992062;28;20433;-62
2022/11/06 02:32:37;;;;;;;16.08;8.82;;;;;;;;;;4990101;28;20387;-62
2022/11/06 02:35:10;;;;;;;17.17;8.68;;;;;;;;;;4991822;28;20475;-61
2022/11/06 02:37:37;;;;;;;20.10;9.02;;;;;;;;;;4973804;28;20064;-62
2022/11/06 02:40:06;;;;;;;20.15;8.32;;;;;;;;;;4973841;28;20403;-62
2022/11/06 02:42:36;;;;;;;26.42;10.18;;;;;;;;;;4991503;28;20347;-62
2022/11/06 02:45:02;;;;;;;18.52;8.40;;;;;;;;;;4973888;28;20117;-61
2022/11/06 02:47:30;;;;;;;16.27;8.88;;;;;;;;;;4973634;28;20443;-62
2022/11/06 02:50:18;;;;;;;19.20;8.73;;;;;;;;;;4973950;28;20574;-61
2022/11/06 02:52:47;;;;;;;17.58;9.30;;;;;;;;;;4973580;28;20443;-62
2022/11/06 02:55:12;;;;;;;16.73;8.63;;;;;;;;;;4991463;28;20510;-61
2022/11/06 02:57:43;;;;;;;15.25;7.93;;;;;;;;;;4991878;28;20395;-61
2022/11/06 03:00:11;;;;;;;18.17;9.15;;;;;;;;;;4991220;28;20503;-61
2022/11/06 03:02:39;;;;;;;17.73;9.45;;;;;;;;;;4990999;28;20455;-61
2022/11/06 03:05:11;;;;;;;21.00;8.88;;;;;;;;;;4973279;28;20029;-62
2022/11/06 03:07:41;;;;;;;15.30;8.45;;;;;;;;;;4973184;28;20100;-61
2022/11/06 03:10:07;;;;;;;17.98;8.15;;;;;;;;;;4973982;28;20446;-62
2022/11/06 03:12:38;;;;;;;20.73;9.18;;;;;;;;;;4973077;28;20428;-61
2022/11/06 03:15:21;;;;;;;15.73;8.95;;;;;;;;;;4992519;28;20482;-61
2022/11/06 03:18:05;;;;;;;20.58;8.55;;;;;;;;;;4990982;28;20380;-62
2022/11/06 03:21:36;;;;;;;24.15;8.48;;;;;;;;;;4991786;28;20344;-62
2022/11/06 03:24:13;;;;;;;17.92;8.25;;;;;;;;;;4910365;28;20458;-62
2022/11/06 03:26:43;;;;;;;16.48;7.15;;;;;;;;;;4910338;28;20354;-62
2022/11/06 03:29:16;;;;;;;17.02;8.40;;;;;;;;;;4956259;28;20063;-62
2022/11/06 03:31:55;;;;;;;19.38;9.70;;;;;;;;;;4992096;28;20435;-62
2022/11/06 03:34:26;;;;;;;18.23;9.02;;;;;;;;;;4972996;28;20529;-62
2022/11/06 03:36:58;;;;;;;21.27;9.52;;;;;;;;;;4972861;28;20391;-61
2022/11/06 03:39:32;;;;;;;23.45;9.45;;;;;;;;;;4973205;28;20443;-62
2022/11/06 03:42:02;;;;;;;22.20;9.23;;;;;;;;;;4972795;28;20536;-62
2022/11/06 03:44:29;;;;;;;17.85;9.00;;;;;;;;;;4990512;28;20359;-62
2022/11/06 03:47:01;;;;;;;20.60;9.63;;;;;;;;;;4990169;28;20471;-62
2022/11/06 03:49:33;;;;;;;25.73;9.98;;;;;;;;;;4990300;28;20436;-62
2022/11/06 03:52:06;;;;;;;27.98;10.15;;;;;;;;;;4972462;28;20340;-62
2022/11/06 03:54:35;;;;;;;21.80;9.35;;;;;;;;;;4991001;28;20440;-62
2022/11/06 03:57:16;;;;;;;19.48;10.43;;;;;;;;;;4990978;28;20320;-62
2022/11/06 03:59:46;;;;;;;17.77;9.88;;;;;;;;;;4990357;28;20139;-61
2022/11/06 04:02:12;;;;;;;23.08;9.50;;;;;;;;;;4989998;28;20041;-62
2022/11/06 04:04:46;;;;;;;16.50;8.73;;;;;;;;;;4972487;28;20095;-61
2022/11/06 04:07:25;;;;;;;17.75;9.27;;;;;;;;;;4990348;28;20305;-61
2022/11/06 04:15:21;;;;;;;22.08;9.20;;;;;;;;;;4991933;28;20458;-61
2022/11/06 04:17:47;;;;;;;21.52;9.73;;;;;;;;;;4972190;28;20355;-62
2022/11/06 04:21:20;;;;;;;23.13;10.32;;;;;;;;;;4989795;28;20383;-62
2022/11/06 04:23:08;;;;;;;16.60;8.98;;;;;;;;;;4987993;28;20518;-61
2022/11/06 04:28:53;;;;;;;18.98;8.57;;;;;;;;;;4974416;28;20467;-61
2022/11/06 04:31:50;;;;;;;21.80;9.40;;;;;;;;;;4989513;28;20347;-61
2022/11/06 04:34:52;;;;;;;17.35;9.23;;;;;;;;;;4900960;28;20081;-62
2022/11/06 04:37:26;;;;;;;17.55;8.10;;;;;;;;;;4962025;28;20163;-62
2022/11/06 04:40:07;;;;;;;20.70;9.38;;;;;;;;;;4969194;28;20428;-61
2022/11/06 04:42:39;;;;;;;17.98;8.65;;;;;;;;;;4989511;28;20328;-61
2022/11/06 04:45:08;;;;;;;15.57;8.60;;;;;;;;;;4970818;28;20427;-61
2022/11/06 04:47:35;;;;;;;18.02;8.18;;;;;;;;;;4989602;28;20360;-62
2022/11/06 04:50:01;;;;;;;27.40;9.45;;;;;;;;;;4971569;28;20440;-62
2022/11/06 04:52:27;;;;;;;20.42;10.43;;;;;;;;;;4971622;28;20527;-62
2022/11/06 04:54:55;;;;;;;19.40;9.75;;;;;;;;;;4989308;28;20437;-62
2022/11/06 04:57:25;;;;;;;23.83;10.45;;;;;;;;;;4971190;28;20103;-63
2022/11/06 04:59:50;;;;;;;22.30;10.23;;;;;;;;;;4989129;28;20431;-62
2022/11/06 05:02:15;;;;;;;17.85;7.70;;;;;;;;;;4988912;28;20452;-62
2022/11/06 05:04:41;;;;;;;20.52;10.75;;;;;;;;;;4988948;28;20365;-62
2022/11/06 05:07:06;;;;;;;17.80;9.77;;;;;;;;;;4989847;28;20490;-61
2022/11/06 05:09:32;;;;;;;22.45;10.48;;;;;;;;;;4989985;28;20413;-62
2022/11/06 05:11:57;;;;;;;18.40;9.75;;;;;;;;;;4988699;28;20357;-62
2022/11/06 05:14:23;;;;;;;18.77;9.98;;;;;;;;;;4989217;28;20021;-61
2022/11/06 05:16:48;;;;;;;20.90;10.00;;;;;;;;;;4989294;28;20416;-61
2022/11/06 05:19:13;;;;;;;19.25;10.13;;;;;;;;;;4988812;28;20371;-61
2022/11/06 05:24:22;;;;;;;23.90;12.60;;;;;;;;;;4988972;28;20455;-62
2022/11/06 05:26:48;;;;;;;24.90;12.95;;;;;;;;;;4990068;28;20424;-62
2022/11/06 05:29:13;;;;;;;33.03;15.70;;;;;;;;;;4988533;28;20029;-61
2022/11/06 05:31:38;;;;;;;27.27;14.63;;;;;;;;;;4988725;28;20412;-62
2022/11/06 05:34:04;;;;;;;24.98;13.02;;;;;;;;;;4988863;28;20285;-62
2022/11/06 05:36:30;;;;;;;22.80;11.35;;;;;;;;;;4988496;28;20324;-61
2022/11/06 05:38:55;;;;;;;20.33;12.15;;;;;;;;;;4989094;28;20435;-62
2022/11/06 05:41:20;;;;;;;21.50;11.52;;;;;;;;;;4989586;28;20115;-62
2022/11/06 05:43:46;;;;;;;20.20;10.35;;;;;;;;;;4988294;28;20343;-62
2022/11/06 05:46:11;;;;;;;22.88;11.35;;;;;;;;;;4989901;28;20323;-62
2022/11/06 05:48:36;;;;;;;22.30;10.48;;;;;;;;;;4989043;28;20352;-62
2022/11/06 05:51:06;;;;;;;20.80;9.48;;;;;;;;;;4988634;28;20037;-62
2022/11/06 05:53:33;;;;;;;18.65;10.65;;;;;;;;;;4988192;28;20436;-62
2022/11/06 05:55:58;;;;;;;18.17;10.13;;;;;;;;;;4989216;28;20407;-62
2022/11/06 05:58:24;;;;;;;16.45;8.82;;;;;;;;;;4992363;28;20403;-62
2022/11/06 06:00:49;;;;;;;24.95;9.45;;;;;;;;;;4992243;28;20398;-62
2022/11/06 06:03:15;;;;;;;19.88;9.10;;;;;;;;;;4992102;28;20367;-62
2022/11/06 06:05:40;;;;;;;18.50;9.38;;;;;;;;;;4992017;28;20520;-62
2022/11/06 06:08:06;;;;;;;15.95;8.60;;;;;;;;;;4992446;28;20427;-62
2022/11/06 06:10:31;;;;;;;20.70;8.70;;;;;;;;;;4992419;28;20490;-63
2022/11/06 06:12:56;;;;;;;13.80;8.35;;;;;;;;;;4992124;28;20309;-62
2022/11/06 06:15:22;;;;;;;19.88;8.88;;;;;;;;;;4992212;28;20521;-62
2022/11/06 06:17:47;;;;;;;15.45;8.38;;;;;;;;;;4991994;28;20429;-61
2022/11/06 06:20:13;;;;;;;20.23;9.20;;;;;;;;;;4992083;28;20324;-61
2022/11/06 06:22:38;;;;;;;16.08;8.77;;;;;;;;;;4992525;28;20113;-62
2022/11/06 06:25:04;;;;;;;20.73;8.88;;;;;;;;;;4992147;28;20504;-62
2022/11/06 06:27:30;;;;;;;16.00;8.27;;;;;;;;;;4992470;28;20363;-62
2022/11/06 06:29:55;;;;;;;18.23;8.95;;;;;;;;;;4991837;28;20474;-62
2022/11/06 06:32:20;;;;;;;18.40;8.82;;;;;;;;;;4990595;28;20379;-61
2022/11/06 06:34:46;;;;;;;16.38;8.45;;;;;;;;;;4993175;28;20327;-62
2022/11/06 06:37:11;;;;;;;21.95;8.70;;;;;;;;;;4991655;28;20431;-62
2022/11/06 06:39:36;;;;;;;16.60;8.10;;;;;;;;;;4991618;28;20447;-62
2022/11/06 06:42:02;;;;;;;15.27;8.55;;;;;;;;;;4991845;28;20332;-62
2022/11/06 06:44:27;;;;;;;16.95;8.38;;;;;;;;;;4992252;28;20447;-62
2022/11/06 06:46:53;;;;;;;15.32;8.80;;;;;;;;;;4991407;28;20052;-62
2022/11/06 06:49:18;;;;;;;20.05;8.90;;;;;;;;;;4991302;28;20562;-62
2022/11/06 06:51:43;;;;;;;15.20;8.90;;;;;;;;;;4992431;28;20517;-62
2022/11/06 06:54:09;;;;;;;14.88;8.27;;;;;;;;;;4991435;28;20452;-62
2022/11/06 06:56:34;;;;;;;13.90;8.10;;;;;;;;;;4991331;28;20095;-61
2022/11/06 06:58:59;;;;;;;15.60;8.90;;;;;;;;;;4991723;28;20494;-61
2022/11/06 07:01:25;;;;;;;15.93;9.45;;;;;;;;;;4990691;28;20108;-62
2022/11/06 07:03:50;;;;;;;15.30;8.23;;;;;;;;;;4991344;28;20138;-61
2022/11/06 07:06:18;;;;;;;13.85;8.02;;;;;;;;;;4991678;28;20309;-61
2022/11/06 07:08:43;;;;;;;13.95;8.07;;;;;;;;;;4991112;28;20347;-62
2022/11/06 07:11:09;;;;;;;12.50;7.78;;;;;;;;;;4991184;28;20344;-62
2022/11/06 07:13:34;;;;;;;13.93;8.25;;;;;;;;;;4991290;28;20443;-62
2022/11/06 07:16:10;;;;;;;21.33;11.57;;;;;;;;;;4991339;28;20407;-62
2022/11/06 07:18:36;;;;;;;21.02;11.07;;;;;;;;;;4991470;28;20383;-62
2022/11/06 07:21:06;;;;;;;27.23;12.60;;;;;;;;;;4990676;28;20364;-62
2022/11/06 07:23:33;;;;;;;24.52;13.10;;;;;;;;;;4991115;28;20424;-61
2022/11/06 07:25:58;;;;;;;26.13;13.02;;;;;;;;;;4990475;28;20037;-63
2022/11/06 07:28:24;;;;;;;30.25;15.20;;;;;;;;;;4991157;28;20032;-61
2022/11/06 07:30:49;;;;;;;27.98;15.23;;;;;;;;;;4989137;28;20431;-62
2022/11/06 07:33:14;;;;;;;24.73;13.98;;;;;;;;;;4991150;28;20340;-62
2022/11/06 07:35:40;;;;;;;18.88;11.00;;;;;;;;;;4990648;28;20332;-61
2022/11/06 07:38:05;;;;;;;18.50;10.35;;;;;;;;;;4990537;28;20455;-61
2022/11/06 07:40:32;;;;;;;17.77;9.52;;;;;;;;;;4990548;28;20387;-62
2022/11/06 07:43:08;;;;;;;19.88;10.27;;;;;;;;;;4990938;28;20435;-62
2022/11/06 07:45:34;;;;;;;15.75;8.85;;;;;;;;;;4990681;28;20649;-61
2022/11/06 07:47:59;;;;;;;16.88;9.48;;;;;;;;;;4990614;28;20443;-62
2022/11/06 07:50:25;;;;;;;19.77;9.57;;;;;;;;;;4990921;28;20344;-62
2022/11/06 07:52:51;;;;;;;17.45;10.00;;;;;;;;;;4990444;28;20056;-62
2022/11/06 07:55:16;;;;;;;16.25;8.98;;;;;;;;;;4991035;28;20482;-62
2022/11/06 07:57:41;;;;;;;14.70;8.18;;;;;;;;;;4990252;28;20056;-61
2022/11/06 08:00:08;;;;;;;14.80;8.75;;;;;;;;;;4990210;28;20348;-62
2022/11/06 08:02:33;;;;;;;14.20;8.48;;;;;;;;;;4989889;28;20391;-62
2022/11/06 08:04:58;;;;;;;14.30;8.93;;;;;;;;;;4990131;28;20415;-61
2022/11/06 08:07:24;;;;;;;16.25;8.35;;;;;;;;;;4990013;28;20462;-62
2022/11/06 08:09:49;;;;;;;17.02;9.45;;;;;;;;;;4989761;28;20510;-61
2022/11/06 08:12:14;;;;;;;14.40;8.75;;;;;;;;;;4990078;28;20427;-61
2022/11/06 08:14:40;;;;;;;16.85;9.18;;;;;;;;;;4990454;28;20523;-62
2022/11/06 08:17:06;;;;;;;17.55;9.65;;;;;;;;;;4968746;28;20466;-62
2022/11/06 08:19:31;;;;;;;20.20;9.00;;;;;;;;;;4988751;28;20094;-62
2022/11/06 08:21:56;;;;;;;15.30;9.45;;;;;;;;;;4989622;28;20056;-62
2022/11/06 08:24:22;;;;;;;19.05;9.88;;;;;;;;;;4989859;28;20450;-62
2022/11/06 08:26:48;;;;;;;15.05;8.93;;;;;;;;;;4989845;28;20428;-61
2022/11/06 08:29:13;;;;;;;15.82;8.82;;;;;;;;;;4989978;28;20440;-62
2022/11/06 08:31:38;;;;;;;15.85;7.38;;;;;;;;;;4989862;28;20396;-62
2022/11/06 08:34:04;;;;;;;12.63;7.05;;;;;;;;;;4991013;28;20472;-62
2022/11/06 08:36:29;;;;;;;12.55;6.78;;;;;;;;;;4990757;28;20447;-62
2022/11/06 08:38:54;;;;;;;11.07;6.13;;;;;;;;;;4989550;28;20387;-62
2022/11/06 08:41:20;;;;;;;14.07;5.95;;;;;;;;;;4989481;28;20404;-62
2022/11/06 08:43:50;;;;;;;9.88;6.68;;;;;;;;;;4990357;28;20477;-62
2022/11/06 08:46:15;;;;;;;12.63;6.10;;;;;;;;;;4989256;28;20394;-62
2022/11/06 08:48:40;;;;;;;11.25;5.95;;;;;;;;;;4989413;28;20343;-62
2022/11/06 08:51:06;;;;;;;12.52;5.68;;;;;;;;;;4989261;28;20462;-62
2022/11/06 08:53:32;;;;;;;12.52;7.15;;;;;;;;;;4989585;28;20527;-62
2022/11/06 08:55:57;;;;;;;11.60;6.65;;;;;;;;;;4988812;28;20367;-62
2022/11/06 08:58:22;;;;;;;11.30;5.82;;;;;;;;;;4989498;28;20115;-63
2022/11/06 09:00:48;;;;;;;10.10;6.20;;;;;;;;;;4990188;28;20497;-62
2022/11/06 09:03:16;;;;;;;11.10;6.55;;;;;;;;;;4988831;28;20388;-62
2022/11/06 09:05:43;;;;;;;13.27;6.95;;;;;;;;;;4988648;28;20044;-62
2022/11/06 09:08:09;;;;;;;11.10;6.03;;;;;;;;;;4989319;28;20025;-62
2022/11/06 09:10:38;;;;;;;9.60;6.13;;;;;;;;;;4989025;28;20816;-62
2022/11/06 09:13:04;;;;;;;;;;;;;;;;;;4989456;28;20444;-62
2022/11/06 09:15:29;;;;;;;13.15;6.93;;;;;;;;;;4988862;28;20378;-61
2022/11/06 09:17:55;;;;;;;12.02;6.55;;;;;;;;;;4971835;28;20041;-62
2022/11/06 09:20:21;;;;;;;17.63;9.07;;;;;;;;;;4988610;28;20355;-62
2022/11/06 09:22:47;;;;;;;20.42;10.38;;;;;;;;;;4988865;28;20443;-62
2022/11/06 09:25:13;;;;;;;20.38;9.85;;;;;;;;;;4988762;28;20325;-62
2022/11/06 09:27:42;;;;;;;17.38;8.98;;;;;;;;;;4988488;28;20045;-62
2022/11/06 09:30:10;;;;;;;14.60;6.80;;;;;;;;;;4988509;28;20352;-62
2022/11/06 09:32:35;;;;;;;12.00;6.75;;;;;;;;;;4988388;28;20463;-63
2022/11/06 09:35:00;;;;;;;19.30;7.72;;;;;;;;;;4988928;28;20440;-62
2022/11/06 09:37:26;;;;;;;14.70;8.23;;;;;;;;;;4988765;28;20408;-62
2022/11/06 09:39:51;;;;;;;15.73;7.25;;;;;;;;;;4988667;28;20458;-63
2022/11/06 09:42:35;;;;;;;18.15;8.77;;;;;;;;;;4989031;28;20041;-62
2022/11/06 09:45:07;;;;;;;18.73;9.38;;;;;;;;;;4988555;28;20037;-62
2022/11/06 09:47:35;;;;;;;12.70;8.07;;;;;;;;;;4989099;28;20511;-61
2022/11/06 09:50:03;;;;;;;13.85;6.82;;;;;;;;;;4989278;28;20403;-61
2022/11/06 09:52:39;;;;;;;14.95;7.15;;;;;;;;;;4988438;28;20174;-62
2022/11/06 09:55:09;;;;;;;12.82;6.50;;;;;;;;;;4988785;28;20316;-62
2022/11/06 09:57:54;;;;;;;10.75;5.72;;;;;;;;;;4970259;28;20480;-62
2022/11/06 10:00:20;;;;;;;9.55;4.90;;;;;;;;;;4988633;28;20383;-61
2022/11/06 10:03:36;;;;;;;10.57;4.80;;;;;;;;;;4988204;28;20372;-61
2022/11/06 10:06:01;;;;;;;8.73;4.78;;;;;;;;;;4927000;28;20469;-62
2022/11/06 10:08:28;;;;;;;11.35;4.25;;;;;;;;;;4988079;28;20455;-61
2022/11/06 10:11:14;;;;;;;5.82;4.07;;;;;;;;;;4988322;28;20347;-61
2022/11/06 10:13:48;;;;;;;9.90;4.22;;;;;;;;;;4988659;28;20485;-62
2022/11/06 10:16:34;;;;;;;7.07;3.67;;;;;;;;;;4988095;28;20483;-62
2022/11/06 10:19:18;;;;;;;12.18;4.68;;;;;;;;;;4988220;28;20314;-62
2022/11/06 10:21:51;;;;;;;10.65;4.43;;;;;;;;;;4988093;28;20428;-62
2022/11/06 10:24:23;;;;;;;8.43;3.90;;;;;;;;;;4988388;28;20499;-63
2022/11/06 10:26:52;;;;;;;7.55;3.95;;;;;;;;;;4970131;28;20345;-61
2022/11/06 10:29:30;;;;;;;12.27;3.65;;;;;;;;;;4988399;28;20133;-62
2022/11/06 10:32:18;;;;;;;9.00;3.47;;;;;;;;;;4988003;28;20327;-61
2022/11/06 10:34:47;;;;;;;9.40;3.60;;;;;;;;;;4975893;28;20345;-62
2022/11/06 10:37:17;;;;;;;9.23;4.23;;;;;;;;;;4970470;28;20029;-62
2022/11/06 10:39:43;;;;;;;6.78;4.07;;;;;;;;;;4971127;28;20268;-61
2022/11/06 10:42:15;;;;;;;9.68;3.85;;;;;;;;;;4971039;28;20060;-62
2022/11/06 10:44:52;;;;;;;10.68;4.03;;;;;;;;;;4992544;28;20380;-61
2022/11/06 10:47:20;;;;;;;6.25;3.72;;;;;;;;;;4973436;28;20344;-61
2022/11/06 10:49:56;;;;;;;6.88;4.00;;;;;;;;;;4991767;28;20033;-61
2022/11/06 10:52:31;;;;;;;8.55;3.88;;;;;;;;;;4973693;28;20325;-62
2022/11/06 10:55:34;;;;;;;8.55;4.00;;;;;;;;;;4991325;28;20459;-62
2022/11/06 10:58:08;;;;;;;7.63;3.63;;;;;;;;;;4991703;28;20163;-61
2022/11/06 11:00:34;;;;;;;8.05;3.70;;;;;;;;;;4991548;28;20024;-61
2022/11/06 11:03:05;;;;;;;6.63;3.47;;;;;;;;;;4991234;28;20465;-62
2022/11/06 11:05:39;;;;;;;7.45;4.22;;;;;;;;;;4991329;28;20037;-62
2022/11/06 11:08:04;;;;;;;6.80;3.75;;;;;;;;;;4991372;28;20376;-62
2022/11/06 11:10:33;;;;;;;8.27;3.60;;;;;;;;;;4992006;28;20029;-62
2022/11/06 11:13:01;;;;;;;8.27;3.55;;;;;;;;;;4973178;28;20367;-62
2022/11/06 11:15:27;;;;;;;7.60;3.08;;;;;;;;;;4990986;28;20420;-62
2022/11/06 11:18:11;;;;;;;6.43;2.97;;;;;;;;;;4974387;28;20451;-62
2022/11/06 11:20:38;;;;;;;5.85;3.08;;;;;;;;;;4990998;28;20488;-62
2022/11/06 11:23:25;;;;;;;5.95;3.33;;;;;;;;;;4992160;28;20312;-61
2022/11/06 11:25:55;;;;;;;6.28;3.08;;;;;;;;;;4990357;28;20044;-61
2022/11/06 11:28:29;;;;;;;6.15;3.58;;;;;;;;;;4991518;28;20344;-61
2022/11/06 11:31:02;;;;;;;6.43;3.03;;;;;;;;;;4973424;28;20367;-61
2022/11/06 11:33:28;;;;;;;4.32;2.83;;;;;;;;;;4990587;28;20379;-61
2022/11/06 11:35:54;;;;;;;7.50;2.80;;;;;;;;;;4990909;28;20358;-62
2022/11/06 11:38:21;;;;;;;10.40;2.90;;;;;;;;;;4991050;28;20479;-63
2022/11/06 11:40:46;;;;;;;6.72;2.60;;;;;;;;;;4991094;28;20371;-62
2022/11/06 11:43:27;;;;;;;4.97;2.45;;;;;;;;;;4973107;28;20371;-62
2022/11/06 11:46:08;;;;;;;6.38;2.80;;;;;;;;;;4990394;28;20432;-61
2022/11/06 11:48:43;;;;;;;7.70;2.67;;;;;;;;;;4990800;28;20343;-61
2022/11/06 11:51:20;;;;;;;6.70;2.30;;;;;;;;;;4990469;28;20408;-61
2022/11/06 11:53:45;;;;;;;6.20;2.40;;;;;;;;;;4971323;28;20041;-61
2022/11/06 11:56:19;;;;;;;5.97;2.75;;;;;;;;;;4991785;28;20455;-62
2022/11/06 11:58:52;;;;;;;5.43;2.63;;;;;;;;;;4990281;28;20356;-62
2022/11/06 12:01:18;;;;;;;4.47;2.38;;;;;;;;;;4990168;28;21119;-61
2022/11/06 12:03:48;;;;;;;4.25;2.30;;;;;;;;;;4972687;28;20451;-62
2022/11/06 12:06:16;;;;;;;5.75;2.78;;;;;;;;;;4990123;28;20358;-61
2022/11/06 12:08:50;;;;;;;3.08;1.90;;;;;;;;;;4990399;28;20104;-62
2022/11/06 12:11:20;;;;;;;6.28;2.13;;;;;;;;;;4972420;28;20381;-61
2022/11/06 12:14:18;;;;;;;7.72;2.80;;;;;;;;;;4972609;28;20080;-61
2022/11/06 12:16:49;;;;;;;5.00;2.17;;;;;;;;;;4989891;28;20560;-61
2022/11/06 12:19:15;;;;;;;7.50;2.55;;;;;;;;;;4972264;28;20033;-62
2022/11/06 12:21:42;;;;;;;5.35;2.25;;;;;;;;;;4972144;28;20099;-62
2022/11/06 12:24:12;;;;;;;3.75;2.00;;;;;;;;;;4972073;28;20382;-61
2022/11/06 12:26:42;;;;;;;5.07;2.53;;;;;;;;;;4972006;28;20344;-61
2022/11/06 12:29:14;;;;;;;4.45;1.98;;;;;;;;;;4971888;28;20332;-62
2022/11/06 12:31:44;;;;;;;6.07;2.25;;;;;;;;;;4971799;28;20458;-61
2022/11/06 12:34:33;;;;;;;5.40;2.00;;;;;;;;;;4990535;28;20491;-63
2022/11/06 12:37:10;;;;;;;;;;;;;;;;;;4972097;28;20455;-61
2022/11/06 12:39:38;;;;;;;5.30;2.20;;;;;;;;;;4989437;28;20266;-61
2022/11/06 12:42:05;;;;;;;3.65;2.05;;;;;;;;;;4971666;28;20370;-61
2022/11/06 12:44:30;;;;;;;4.57;2.10;;;;;;;;;;4971648;28;20447;-61
2022/11/06 12:47:21;;;;;;;3.45;1.77;;;;;;;;;;4989467;28;20503;-62
2022/11/06 12:50:15;;;;;;;4.55;2.05;;;;;;;;;;4989445;28;20025;-61
2022/11/06 12:52:51;;;;;;;6.40;2.08;;;;;;;;;;4975981;28;20041;-61
2022/11/06 12:55:22;;;;;;;3.67;1.83;;;;;;;;;;4989274;28;20362;-61
2022/11/06 12:58:02;;;;;;;5.25;2.00;;;;;;;;;;4971852;28;20415;-61
2022/11/06 13:00:46;;;;;;;6.50;2.15;;;;;;;;;;4971906;28;20427;-61
2022/11/06 13:03:21;;;;;;;4.88;1.95;;;;;;;;;;4988820;28;20419;-61
2022/11/06 13:05:54;;;;;;;5.20;2.53;;;;;;;;;;4988783;28;20029;-61
2022/11/06 13:08:41;;;;;;;3.47;1.38;;;;;;;;;;4972182;28;20443;-61
2022/11/06 13:11:06;;;;;;;7.57;1.77;;;;;;;;;;4988976;28;20563;-61
2022/11/06 13:13:47;;;;;;;4.03;1.80;;;;;;;;;;4989431;28;20415;-61
2022/11/06 13:16:12;;;;;;;3.83;1.92;;;;;;;;;;4989265;28;20455;-61
2022/11/06 13:18:42;;;;;;;4.50;1.75;;;;;;;;;;4988947;28;20443;-61
2022/11/06 13:21:32;;;;;;;5.88;2.05;;;;;;;;;;4970749;28;20025;-62
2022/11/06 13:24:16;;;;;;;4.40;2.17;;;;;;;;;;4988835;28;20367;-61
2022/11/06 13:26:46;;;;;;;6.22;2.03;;;;;;;;;;4988507;28;20107;-61
2022/11/06 13:29:14;;;;;;;4.97;2.05;;;;;;;;;;4971020;28;20088;-61
2022/11/06 13:31:47;;;;;;;10.25;3.67;;;;;;;;;;4594221;28;10000355;-61
2022/11/06 13:34:21;;;;;;;21.83;7.80;;;;;;;;;;4987739;28;20421;-60
2022/11/06 13:36:47;;;;;;;54.17;27.00;;;;;;;;;;4988555;28;20387;-61
2022/11/06 13:39:28;;;;;;;50.70;22.33;;;;;;;;;;4970845;28;20120;-62
2022/11/06 13:41:54;;;;;;;29.23;12.90;;;;;;;;;;4969994;28;20514;-63
2022/11/06 13:44:20;;;;;;;19.95;6.80;;;;;;;;;;4969970;28;20399;-62
2022/11/06 13:47:07;;;;;;;104.72;50.80;;;;;;;;;;4970202;28;20600;-62
2022/11/06 13:49:54;;;;;;;56.95;25.60;;;;;;;;;;4971250;28;20047;-63
2022/11/06 13:52:40;;;;;;;53.35;25.50;;;;;;;;;;4987730;28;20478;-62
2022/11/06 13:55:11;;;;;;;300.80;169.98;;;;;;;;;;4990666;28;20444;-62
2022/11/06 13:57:36;;;;;;;448.33;257.98;;;;;;;;;;5009096;28;20347;-61
2022/11/06 14:01:01;;;;;;;173.50;87.90;;;;;;;;;;4925126;28;74653;-60
2022/11/06 14:03:42;;;;;;;173.35;80.85;;;;;;;;;;4876199;28;20493;-60
2022/11/06 14:06:17;;;;;;;195.38;94.60;;;;;;;;;;4925758;28;20465;-58
2022/11/06 14:09:14;;;;;;;129.68;62.53;;;;;;;;;;4946785;28;20461;-59
2022/11/06 14:11:43;;;;;;;89.97;39.55;;;;;;;;;;4939318;28;20437;-59
2022/11/06 14:14:21;;;;;;;155.15;68.25;;;;;;;;;;4939070;28;20481;-58
2022/11/06 14:17:11;;;;;;;115.28;48.30;;;;;;;;;;4940266;28;20450;-59
2022/11/06 14:19:38;;;;;;;77.35;35.97;;;;;;;;;;4943156;28;20447;-59
2022/11/06 14:22:32;;;;;;;71.68;33.53;;;;;;;;;;4943564;28;20046;-58
2022/11/06 14:24:59;;;;;;;50.92;20.52;;;;;;;;;;4940453;28;20352;-58
2022/11/06 14:27:24;;;;;;;50.05;20.10;;;;;;;;;;4938864;28;20097;-58
2022/11/06 14:29:56;;;;;;;34.92;13.07;;;;;;;;;;4941790;28;20433;-59
2022/11/06 14:32:34;;;;;;;50.35;18.52;;;;;;;;;;4946424;28;20421;-58
2022/11/06 14:35:27;;;;;;;26.52;8.73;;;;;;;;;;4944586;28;20353;-59
2022/11/06 14:38:08;;;;;;;25.77;11.13;;;;;;;;;;4942831;28;20493;-59
2022/11/06 14:40:35;;;;;;;37.30;17.20;;;;;;;;;;4942725;28;20503;-58
2022/11/06 14:43:31;;;;;;;24.23;10.50;;;;;;;;;;4921472;28;20068;-58
2022/11/06 14:46:04;;;;;;;331.55;205.48;;;;;;;;;;4944665;28;20438;-60
2022/11/06 14:48:39;;;;;;;242.32;122.63;;;;;;;;;;4947286;28;20511;-59
2022/11/06 14:51:08;;;;;;;172.10;84.47;;;;;;;;;;4944673;28;20460;-59
2022/11/06 14:53:39;;;;;;;217.05;105.28;;;;;;;;;;4944353;28;20402;-58
2022/11/06 14:56:08;;;;;;;152.25;69.40;;;;;;;;;;4945633;28;20500;-59
2022/11/06 14:58:46;;;;;;;90.28;39.20;;;;;;;;;;4945538;28;20445;-59
2022/11/06 15:01:15;;;;;;;97.88;37.88;;;;;;;;;;4944288;28;20457;-61
2022/11/06 15:04:17;;;;;;;110.80;45.08;;;;;;;;;;4943921;28;20306;-59